createdAt,value
2019-05-20T03:46:08.601Z,91.00
2019-05-20T03:48:36.612Z,90.40
2019-05-20T03:51:06.535Z,90.70
2019-05-20T03:53:35.500Z,90.90
2019-05-20T03:56:03.549Z,90.90
2019-05-20T03:58:31.583Z,90.30
2019-05-20T04:00:59.623Z,90.20
2019-05-20T04:03:27.697Z,91.40
2019-05-20T04:05:56.727Z,90.80
2019-05-20T04:08:24.987Z,91.20
2019-05-20T04:10:53.220Z,91.70
2019-05-20T04:13:22.239Z,92.20
2019-05-20T04:15:50.227Z,91.40
2019-05-20T04:18:18.210Z,91.40
2019-05-20T04:20:46.192Z,91.60
2019-05-20T04:23:14.189Z,91.30
2019-05-20T04:25:42.289Z,91.60
2019-05-20T04:28:16.120Z,91.20
2019-05-20T04:30:45.105Z,91.20
2019-05-20T04:33:13.162Z,90.70
2019-05-20T04:35:41.222Z,90.90
2019-05-20T04:38:09.227Z,91.00
2019-05-20T04:40:37.201Z,91.70
2019-05-20T04:43:05.258Z,91.10
2019-05-20T04:45:33.303Z,91.10
2019-05-20T04:48:01.404Z,91.60
2019-05-20T04:50:29.461Z,91.50
2019-05-20T04:52:58.006Z,91.60
2019-05-20T04:55:25.995Z,91.00
2019-05-20T04:57:54.040Z,91.30
2019-05-20T05:00:40.400Z,91.00
2019-05-20T05:03:09.364Z,90.40
2019-05-20T05:05:38.111Z,90.60
2019-05-20T05:08:06.352Z,90.30
2019-05-20T05:10:43.256Z,91.00
2019-05-20T05:13:16.090Z,91.30
2019-05-20T05:15:44.479Z,91.70
2019-05-20T05:18:15.575Z,92.20
2019-05-20T05:20:42.786Z,91.30
2019-05-20T05:23:34.242Z,90.80
2019-05-20T05:28:58.335Z,91.20
2019-05-20T05:31:56.642Z,91.30
2019-05-20T05:34:13.071Z,91.30
2019-05-20T05:36:42.572Z,90.50
2019-05-20T05:39:18.929Z,91.10
2019-05-20T05:41:44.202Z,91.70
2019-05-20T05:44:35.240Z,93.00
2019-05-20T05:50:04.892Z,91.80
2019-05-20T05:52:54.660Z,92.00
2019-05-20T05:55:34.542Z,93.30
2019-05-20T05:58:01.168Z,93.20
2019-05-20T06:00:30.659Z,92.80
2019-05-20T06:06:12.299Z,92.90
2019-05-20T06:08:34.235Z,92.80
2019-05-20T06:11:02.406Z,92.60
2019-05-20T06:13:51.768Z,92.40
2019-05-20T06:16:35.280Z,92.60
2019-05-20T06:19:14.874Z,91.70
2019-05-20T06:46:29.138Z,94.20
2019-05-20T06:49:01.483Z,94.10
2019-05-20T06:51:58.265Z,93.60
2019-05-20T06:54:26.325Z,93.00
2019-05-20T06:56:54.342Z,92.30
2019-05-20T06:59:22.449Z,92.90
2019-05-20T07:01:50.536Z,93.40
2019-05-20T07:04:18.536Z,93.60
2019-05-20T07:06:47.676Z,93.80
2019-05-20T07:09:16.010Z,94.00
2019-05-20T07:11:52.182Z,94.10
2019-05-20T07:14:13.710Z,93.90
2019-05-20T07:16:41.714Z,94.50
2019-05-20T07:19:09.764Z,94.10
2019-05-20T07:21:37.766Z,94.00
2019-05-20T07:24:05.844Z,94.10
2019-05-20T07:26:33.827Z,93.40
2019-05-20T07:29:01.818Z,93.80
2019-05-20T07:31:29.818Z,95.10
2019-05-20T07:33:57.834Z,94.90
2019-05-20T07:36:26.033Z,95.30
2019-05-20T07:38:54.082Z,95.50
2019-05-20T07:41:22.444Z,95.20
2019-05-20T07:43:51.206Z,95.10
2019-05-20T07:46:19.661Z,94.80
2019-05-20T07:48:48.520Z,94.90
2019-05-20T07:51:17.325Z,94.40
2019-05-20T07:53:45.868Z,95.10
2019-05-20T07:56:15.493Z,95.40
2019-05-20T07:58:45.035Z,95.50
2019-05-20T08:01:13.110Z,95.60
2019-05-20T08:03:41.084Z,95.60
2019-05-20T08:06:09.143Z,95.50
2019-05-20T08:08:37.134Z,95.30
2019-05-20T08:11:05.130Z,94.90
2019-05-20T08:13:33.204Z,94.90
2019-05-20T08:16:01.315Z,95.00
2019-05-20T08:18:29.375Z,94.50
2019-05-20T08:20:57.494Z,94.40
2019-05-20T08:23:25.551Z,94.10
2019-05-20T08:25:53.727Z,94.00
2019-05-20T08:28:21.789Z,94.70
2019-05-20T08:30:49.783Z,94.20
2019-05-20T08:33:17.838Z,94.50
2019-05-20T08:35:45.985Z,94.70
2019-05-20T08:38:14.189Z,94.70
2019-05-20T08:40:42.615Z,95.10
2019-05-20T08:43:10.874Z,95.30
2019-05-20T08:45:38.861Z,95.40
2019-05-20T08:48:06.910Z,96.60
2019-05-20T08:50:35.082Z,95.70
2019-05-20T08:53:03.143Z,94.70
2019-05-20T08:55:31.590Z,94.20
2019-05-20T08:57:59.665Z,94.30
2019-05-20T09:00:28.063Z,94.70
2019-05-20T09:02:56.177Z,94.90
2019-05-20T09:05:27.921Z,95.30
2019-05-20T09:08:02.997Z,95.50
2019-05-20T09:10:23.623Z,95.30
2019-05-20T09:12:51.609Z,95.50
2019-05-20T09:15:19.667Z,95.30
2019-05-20T09:17:47.717Z,95.20
2019-05-20T09:20:15.902Z,95.80
2019-05-20T09:22:43.996Z,95.90
2019-05-20T09:25:12.218Z,94.90
2019-05-20T09:27:40.314Z,96.30
2019-05-20T09:30:08.891Z,95.10
2019-05-20T09:32:37.187Z,95.30
2019-05-20T09:35:06.752Z,95.90
2019-05-20T09:37:34.826Z,95.70
2019-05-20T09:40:02.970Z,96.20
2019-05-20T09:42:30.997Z,95.90
2019-05-20T09:45:02.945Z,95.80
2019-05-20T09:47:28.784Z,95.50
2019-05-20T09:49:56.803Z,95.20
2019-05-20T09:52:24.881Z,95.80
2019-05-20T09:54:52.931Z,96.40
2019-05-20T09:57:20.914Z,96.30
2019-05-20T09:59:48.904Z,96.30
2019-05-20T10:02:16.912Z,96.30
2019-05-20T10:04:44.952Z,95.10
2019-05-20T10:07:13.005Z,95.30
2019-05-20T10:09:40.993Z,96.10
2019-05-20T10:12:08.973Z,95.00
2019-05-20T10:14:37.010Z,95.60
2019-05-20T10:17:05.024Z,96.10
2019-05-20T10:19:33.000Z,95.30
2019-05-20T10:22:01.057Z,95.50
2019-05-20T10:24:29.041Z,95.40
2019-05-20T10:26:57.030Z,96.00
2019-05-20T10:29:25.015Z,96.00
2019-05-20T10:31:53.013Z,96.70
2019-05-20T10:34:21.066Z,95.90
2019-05-20T10:36:49.140Z,96.40
2019-05-20T10:39:17.184Z,95.70
2019-05-20T10:41:45.173Z,95.70
2019-05-20T10:44:13.186Z,95.90
2019-05-20T10:46:41.174Z,95.90
2019-05-20T10:49:09.181Z,95.80
2019-05-20T10:51:37.184Z,96.30
2019-05-20T10:54:05.250Z,96.60
2019-05-20T10:56:33.250Z,95.30
2019-05-20T10:59:01.242Z,95.40
2019-05-20T11:01:29.281Z,94.80
2019-05-20T11:03:57.263Z,94.40
2019-05-20T11:06:25.243Z,94.20
2019-05-20T11:08:53.242Z,94.70
2019-05-20T11:11:21.232Z,95.10
2019-05-20T11:13:49.294Z,94.10
2019-05-20T11:16:17.302Z,94.80
2019-05-20T11:18:45.366Z,95.70
2019-05-20T11:21:13.361Z,96.50
2019-05-20T11:23:41.518Z,96.10
2019-05-20T11:26:09.556Z,95.60
2019-05-20T11:28:37.565Z,95.40
2019-05-20T11:31:05.560Z,95.40
2019-05-20T11:33:33.573Z,94.80
2019-05-20T11:36:01.574Z,94.60
2019-05-20T11:38:29.566Z,94.00
2019-05-20T11:40:57.549Z,93.80
2019-05-20T11:43:25.640Z,93.80
2019-05-20T11:45:53.629Z,94.10
2019-05-20T11:48:21.627Z,95.10
2019-05-20T11:50:49.626Z,94.80
2019-05-20T11:53:17.685Z,95.40
2019-05-20T11:55:45.678Z,94.80
2019-05-20T11:58:16.143Z,94.20
2019-05-20T12:00:43.429Z,93.90
2019-05-20T12:03:11.447Z,94.30
2019-05-20T12:05:39.437Z,92.90
2019-05-20T12:08:07.511Z,93.80
2019-05-20T12:10:35.502Z,94.10
2019-05-20T12:13:03.522Z,95.10
2019-05-20T12:15:31.514Z,94.50
2019-05-20T12:17:59.527Z,94.00
2019-05-20T12:20:27.534Z,94.40
2019-05-20T12:22:55.541Z,94.80
2019-05-20T12:25:23.588Z,95.60
2019-05-20T12:27:51.601Z,94.80
2019-05-20T12:30:19.664Z,95.10
2019-05-20T12:32:47.652Z,94.60
2019-05-20T12:35:15.670Z,93.80
2019-05-20T12:37:45.776Z,93.80
2019-05-20T12:40:13.469Z,94.40
2019-05-20T12:42:41.456Z,94.60
2019-05-20T12:45:09.513Z,94.00
2019-05-20T12:47:37.639Z,93.80
2019-05-20T12:50:06.907Z,93.80
2019-05-20T12:52:34.965Z,94.00
2019-05-20T12:55:08.478Z,94.30
2019-05-20T12:57:32.809Z,94.40
2019-05-20T13:00:00.891Z,94.10
2019-05-20T13:02:28.878Z,94.50
2019-05-20T13:04:56.944Z,94.10
2019-05-20T13:07:25.007Z,93.20
2019-05-20T13:09:53.057Z,93.70
2019-05-20T13:12:21.037Z,94.90
2019-05-20T13:14:49.034Z,94.30
2019-05-20T13:17:17.090Z,93.70
2019-05-20T13:19:45.165Z,94.10
2019-05-20T13:22:13.153Z,94.60
2019-05-20T13:24:41.227Z,93.80
2019-05-20T13:27:09.216Z,92.80
2019-05-20T13:29:37.225Z,92.70
2019-05-20T13:32:05.214Z,93.40
2019-05-20T13:34:33.207Z,93.50
2019-05-20T13:37:01.191Z,93.30
2019-05-20T13:39:29.184Z,93.10
2019-05-20T13:41:57.167Z,93.40
2019-05-20T13:44:25.162Z,93.50
2019-05-20T13:46:53.155Z,93.10
2019-05-20T13:49:21.146Z,93.60
2019-05-20T13:51:49.131Z,93.10
2019-05-20T13:54:17.160Z,93.20
2019-05-20T13:56:45.214Z,93.60
2019-05-20T13:59:13.325Z,94.00
2019-05-20T14:01:41.395Z,93.60
2019-05-20T14:04:09.480Z,93.50
2019-05-20T14:06:37.526Z,93.50
2019-05-20T14:09:07.572Z,94.30
2019-05-20T14:11:35.537Z,94.30
2019-05-20T14:14:03.520Z,94.50
2019-05-20T14:16:31.508Z,94.60
2019-05-20T14:18:59.546Z,94.50
2019-05-20T14:21:27.530Z,94.00
2019-05-20T14:23:55.513Z,93.80
2019-05-20T14:26:23.570Z,94.20
2019-05-20T14:28:51.553Z,93.90
2019-05-20T14:31:19.528Z,93.60
2019-05-20T14:33:47.517Z,93.60
2019-05-20T14:36:37.651Z,92.90
2019-05-20T14:38:45.197Z,93.20
2019-05-20T14:41:21.540Z,93.70
2019-05-20T14:43:42.894Z,93.50
2019-05-20T14:46:10.964Z,94.10
2019-05-20T14:48:39.038Z,93.80
2019-05-20T14:51:07.032Z,94.40
2019-05-20T14:53:35.015Z,94.30
2019-05-20T14:56:03.012Z,94.50
2019-05-20T14:58:31.010Z,94.50
2019-05-20T15:00:59.086Z,94.60
2019-05-20T15:03:27.083Z,94.50
2019-05-20T15:05:55.150Z,94.70
2019-05-20T15:08:23.137Z,94.50
2019-05-20T15:10:51.139Z,94.40
2019-05-20T15:13:19.118Z,94.40
2019-05-20T15:15:48.537Z,95.10
2019-05-20T15:18:16.796Z,94.50
2019-05-20T15:20:44.927Z,94.20
2019-05-20T15:23:12.977Z,94.40
2019-05-20T15:25:40.982Z,94.40
2019-05-20T15:28:08.966Z,94.80
2019-05-20T15:30:36.992Z,95.10
2019-05-20T15:33:05.044Z,94.80
2019-05-20T15:35:33.131Z,95.00
2019-05-20T15:38:01.181Z,94.60
2019-05-20T15:40:29.194Z,94.80
2019-05-20T15:42:57.259Z,95.20
2019-05-20T15:45:25.351Z,95.30
2019-05-20T15:47:53.330Z,94.90
2019-05-20T15:50:21.353Z,95.80
2019-05-20T15:52:49.548Z,95.30
2019-05-20T15:55:17.683Z,95.40
2019-05-20T15:57:45.748Z,95.60
2019-05-20T16:00:15.307Z,95.50
2019-05-20T16:02:43.293Z,95.40
2019-05-20T16:05:11.359Z,95.80
2019-05-20T16:07:39.426Z,95.80
2019-05-20T16:10:07.674Z,95.60
2019-05-20T16:12:35.700Z,95.20
2019-05-20T16:15:05.149Z,94.80
2019-05-20T16:17:33.181Z,95.70
2019-05-20T16:20:01.234Z,94.70
2019-05-20T16:22:29.595Z,94.20
2019-05-20T16:24:57.690Z,94.50
2019-05-20T16:27:25.757Z,93.90
2019-05-20T16:30:05.245Z,94.10
2019-05-20T16:32:23.599Z,94.10
2019-05-20T16:34:51.636Z,94.10
2019-05-20T16:37:19.653Z,94.60
2019-05-20T16:39:51.808Z,94.40
2019-05-20T16:42:20.078Z,95.50
2019-05-20T16:44:48.977Z,95.90
2019-05-20T16:47:22.985Z,96.40
2019-05-20T16:49:59.556Z,95.50
2019-05-20T16:52:34.708Z,95.50
2019-05-20T16:55:10.651Z,96.40
2019-05-20T16:57:42.435Z,96.80
2019-05-20T17:00:31.643Z,97.10
2019-05-20T17:02:53.599Z,96.90
2019-05-20T17:05:36.968Z,96.80
2019-05-20T17:08:17.064Z,96.90
2019-05-20T17:10:49.357Z,97.10
2019-05-20T17:13:20.396Z,96.80
2019-05-20T17:15:50.605Z,96.70
2019-05-20T17:18:27.496Z,96.70
2019-05-20T17:21:08.063Z,96.40
2019-05-20T17:23:44.938Z,96.00
2019-05-20T17:26:16.041Z,96.10
2019-05-20T17:28:50.285Z,95.40
2019-05-20T17:31:22.751Z,95.20
2019-05-20T17:33:56.284Z,95.00
2019-05-20T17:36:36.528Z,94.60
2019-05-20T17:41:48.706Z,95.60
2019-05-20T17:44:29.311Z,95.50
2019-05-20T17:47:07.762Z,95.30
2019-05-20T17:49:35.898Z,95.70
2019-05-20T17:52:07.144Z,96.00
2019-05-20T17:54:43.177Z,95.90
2019-05-20T17:57:21.823Z,96.10
2019-05-20T17:59:59.223Z,95.90
2019-05-20T18:02:33.683Z,95.50
2019-05-20T18:05:06.338Z,95.40
2019-05-20T18:07:45.853Z,95.40
2019-05-20T18:10:23.957Z,95.20
2019-05-20T18:13:07.507Z,95.00
2019-05-20T18:15:39.573Z,95.00
2019-05-20T18:18:13.072Z,95.20
2019-05-20T18:20:44.535Z,95.00
2019-05-20T18:23:18.793Z,95.60
2019-05-20T18:26:04.374Z,95.60
2019-05-20T18:28:40.535Z,95.80
2019-05-20T18:31:32.265Z,96.30
2019-05-20T18:34:00.285Z,96.00
2019-05-20T18:37:02.534Z,96.20
2019-05-20T18:39:26.927Z,97.00
2019-05-20T18:42:07.703Z,97.10
2019-05-20T18:44:36.228Z,97.10
2019-05-20T18:47:08.211Z,97.10
2019-05-20T18:49:45.831Z,97.40
2019-05-20T18:52:33.663Z,97.40
2019-05-20T18:54:56.204Z,97.40
2019-05-20T18:57:31.305Z,98.00
2019-05-20T19:00:02.280Z,97.70
2019-05-20T19:02:36.398Z,97.60
2019-05-20T19:05:13.458Z,97.70
2019-05-20T19:07:43.078Z,97.60
2019-05-20T19:10:20.063Z,98.00
2019-05-20T19:12:50.051Z,97.90
2019-05-20T19:15:27.086Z,98.40
2019-05-20T19:17:59.822Z,99.50
2019-05-20T19:20:28.458Z,99.40
2019-05-20T19:23:01.840Z,99.20
2019-05-20T19:25:37.652Z,98.70
2019-05-20T19:28:09.127Z,98.80
2019-05-20T19:30:37.645Z,98.70
2019-05-20T19:33:07.250Z,98.30
2019-05-20T19:35:37.294Z,98.20
2019-05-20T19:38:07.350Z,98.10
2019-05-20T19:40:39.071Z,98.50
2019-05-20T19:43:15.602Z,98.20
2019-05-20T19:45:48.956Z,98.00
2019-05-20T19:48:26.700Z,97.40
2019-05-20T19:50:57.588Z,97.80
2019-05-20T19:53:31.926Z,98.10
2019-05-20T19:56:02.275Z,97.00
2019-05-20T19:58:31.905Z,97.30
2019-05-20T20:01:15.621Z,97.30
2019-05-20T20:03:46.390Z,97.00
2019-05-20T20:06:19.137Z,97.20
2019-05-20T20:08:48.090Z,97.20
2019-05-20T20:11:21.318Z,96.20
2019-05-20T20:14:04.444Z,96.70
2019-05-20T20:16:32.396Z,96.10
2019-05-20T20:19:01.812Z,95.90
2019-05-20T20:21:36.828Z,95.60
2019-05-20T20:24:09.367Z,95.50
2019-05-20T20:26:47.197Z,95.70
2019-05-20T20:29:15.193Z,96.10
2019-05-20T20:31:48.462Z,96.10
2019-05-20T20:34:18.093Z,95.70
2019-05-20T20:37:00.481Z,96.20
2019-05-20T20:39:34.509Z,95.90
2019-05-20T20:42:08.009Z,96.40
2019-05-20T20:44:42.737Z,97.20
2019-05-20T20:47:12.987Z,97.10
2019-05-20T20:49:46.231Z,97.10
2019-05-20T20:52:16.692Z,96.90
2019-05-20T20:54:57.446Z,97.60
2019-05-20T20:57:29.202Z,97.30
2019-05-20T20:59:58.077Z,97.30
2019-05-20T21:02:32.126Z,97.10
2019-05-20T21:05:02.461Z,97.20
2019-05-20T21:07:31.116Z,98.00
2019-05-20T21:10:05.107Z,97.60
2019-05-20T21:12:40.876Z,97.70
2019-05-20T21:15:09.545Z,97.70
2019-05-20T21:17:42.446Z,97.20
2019-05-20T21:20:15.946Z,97.10
2019-05-20T21:22:48.913Z,97.60
2019-05-20T21:25:17.411Z,98.10
2019-05-20T21:27:45.996Z,97.90
2019-05-20T21:30:18.578Z,98.40
2019-05-20T21:33:07.518Z,98.60
2019-05-20T21:35:23.713Z,97.80
2019-05-20T21:37:54.125Z,97.70
2019-05-20T21:40:30.123Z,97.70
2019-05-20T21:42:58.590Z,98.10
2019-05-20T21:45:26.864Z,97.50
2019-05-20T21:48:01.282Z,97.70
2019-05-20T21:50:32.749Z,97.80
2019-05-20T21:53:05.895Z,97.90
2019-05-20T21:55:36.965Z,98.00
2019-05-20T21:58:09.131Z,98.40
2019-05-20T22:00:56.342Z,98.10
2019-05-20T22:03:25.365Z,97.70
2019-05-20T22:05:53.682Z,97.30
2019-05-20T22:08:21.677Z,97.50
2019-05-20T22:10:49.658Z,97.90
2019-05-20T22:13:17.717Z,97.70
2019-05-20T22:15:45.696Z,97.80
2019-05-20T22:18:13.759Z,97.40
2019-05-20T22:20:41.749Z,97.70
2019-05-20T22:23:29.784Z,97.80
2019-05-20T22:25:57.912Z,98.00
2019-05-20T22:28:25.900Z,97.50
2019-05-20T22:30:53.891Z,97.90
2019-05-20T22:33:21.896Z,97.60
2019-05-20T22:35:49.881Z,97.20
2019-05-20T22:38:17.877Z,97.60
2019-05-20T22:40:45.867Z,97.50
2019-05-20T22:43:13.865Z,97.50
2019-05-20T22:45:41.855Z,98.20
2019-05-20T22:48:09.856Z,97.70
2019-05-20T22:50:37.843Z,97.00
2019-05-20T22:53:05.901Z,96.40
2019-05-20T22:55:33.965Z,96.60
2019-05-20T22:58:01.986Z,96.40
